createdAt,value
2018-09-17T00:00:45.386Z,12.60
2018-09-17T00:03:17.450Z,12.60
2018-09-17T00:05:46.881Z,12.60
2018-09-17T00:08:17.179Z,12.60
2018-09-17T00:10:46.519Z,12.50
2018-09-17T00:13:15.872Z,12.50
2018-09-17T00:15:45.041Z,12.50
2018-09-17T00:18:14.186Z,12.50
2018-09-17T00:20:43.371Z,12.50
2018-09-17T00:23:13.797Z,12.40
2018-09-17T00:25:42.856Z,12.40
2018-09-17T00:28:12.011Z,12.40
2018-09-17T00:30:41.242Z,12.40
2018-09-17T00:33:10.709Z,12.40
2018-09-17T00:35:40.058Z,12.40
2018-09-17T00:38:11.588Z,12.40
2018-09-17T00:40:40.896Z,12.40
2018-09-17T00:43:10.042Z,12.40
2018-09-17T00:45:39.406Z,12.40
2018-09-17T00:48:08.601Z,12.40
2018-09-17T00:50:37.645Z,12.40
2018-09-17T00:53:06.915Z,12.40
2018-09-17T00:55:36.153Z,12.40
2018-09-17T00:58:05.470Z,12.40
2018-09-17T01:00:34.513Z,12.30
2018-09-17T01:03:03.558Z,12.30
2018-09-17T01:05:32.579Z,12.30
2018-09-17T01:08:02.507Z,12.30
2018-09-17T01:10:32.418Z,12.20
2018-09-17T01:13:01.705Z,12.20
2018-09-17T01:15:30.896Z,12.20
2018-09-17T01:18:00.080Z,12.30
2018-09-17T01:20:29.247Z,12.20
2018-09-17T01:22:58.298Z,12.20
2018-09-17T01:25:27.451Z,12.20
2018-09-17T01:27:56.783Z,12.20
2018-09-17T01:30:26.015Z,12.20
2018-09-17T01:32:55.953Z,12.20
2018-09-17T01:35:25.136Z,12.20
2018-09-17T01:37:54.298Z,12.20
2018-09-17T01:40:23.565Z,12.20
2018-09-17T01:42:52.741Z,12.30
2018-09-17T01:45:22.905Z,12.30
2018-09-17T01:47:54.187Z,12.30
2018-09-17T01:50:24.796Z,12.30
2018-09-17T01:52:55.467Z,12.30
2018-09-17T01:55:24.974Z,12.30
2018-09-17T01:57:54.744Z,12.30
2018-09-17T02:00:23.922Z,12.20
2018-09-17T02:02:53.551Z,12.20
2018-09-17T02:05:22.934Z,12.20
2018-09-17T02:07:51.983Z,12.20
2018-09-17T02:10:21.151Z,12.10
2018-09-17T02:12:52.330Z,12.10
2018-09-17T02:15:21.828Z,12.10
2018-09-17T02:17:51.006Z,12.10
2018-09-17T02:20:20.176Z,12.10
2018-09-17T02:22:49.486Z,12.10
2018-09-17T02:25:18.801Z,12.10
2018-09-17T02:27:48.104Z,12.10
2018-09-17T02:30:17.301Z,12.00
2018-09-17T02:32:47.200Z,12.00
2018-09-17T02:35:16.278Z,11.90
2018-09-17T02:37:45.433Z,11.90
2018-09-17T02:40:15.728Z,11.80
2018-09-17T02:42:48.610Z,11.80
2018-09-17T02:45:18.820Z,11.80
2018-09-17T02:47:48.782Z,11.70
2018-09-17T02:50:17.886Z,11.60
2018-09-17T02:52:46.900Z,11.60
2018-09-17T02:55:16.073Z,11.60
2018-09-17T02:57:45.316Z,11.60
2018-09-17T03:00:14.466Z,11.50
2018-09-17T03:02:43.819Z,11.50
2018-09-17T03:05:12.909Z,11.50
2018-09-17T03:07:42.230Z,11.50
2018-09-17T03:10:11.431Z,11.50
2018-09-17T03:12:40.976Z,11.50
2018-09-17T03:15:21.409Z,11.50
2018-09-17T03:17:50.582Z,11.50
2018-09-17T03:20:19.664Z,11.50
2018-09-17T03:22:48.923Z,11.50
2018-09-17T03:25:18.019Z,11.50
2018-09-17T03:27:47.178Z,11.40
2018-09-17T03:30:16.367Z,11.40
2018-09-17T03:32:45.596Z,11.50
2018-09-17T03:35:14.755Z,11.40
2018-09-17T03:37:44.098Z,11.40
2018-09-17T03:40:13.310Z,11.40
2018-09-17T03:42:42.482Z,11.40
2018-09-17T03:45:12.844Z,11.40
2018-09-17T03:47:43.054Z,11.50
2018-09-17T03:50:12.228Z,11.50
2018-09-17T03:52:41.255Z,11.50
2018-09-17T03:55:10.566Z,11.50
2018-09-17T03:57:42.390Z,11.50
2018-09-17T04:00:11.634Z,11.50
2018-09-17T04:02:40.739Z,11.60
2018-09-17T04:05:09.904Z,11.60
2018-09-17T04:07:39.248Z,11.60
2018-09-17T04:10:08.464Z,11.50
2018-09-17T04:12:38.010Z,11.40
2018-09-17T04:15:07.217Z,11.40
2018-09-17T04:17:36.360Z,11.40
2018-09-17T04:20:05.401Z,11.40
2018-09-17T04:22:34.449Z,11.40
2018-09-17T04:25:05.344Z,11.30
2018-09-17T04:27:34.528Z,11.30
2018-09-17T04:30:03.810Z,11.30
2018-09-17T04:32:35.695Z,11.30
2018-09-17T04:35:06.288Z,11.20
2018-09-17T04:37:36.711Z,11.20
2018-09-17T04:40:06.795Z,11.20
2018-09-17T04:42:37.366Z,11.20
2018-09-17T04:45:06.920Z,11.20
2018-09-17T04:47:36.184Z,11.20
2018-09-17T04:50:08.101Z,11.20
2018-09-17T04:52:37.326Z,11.20
2018-09-17T04:55:07.120Z,11.10
2018-09-17T04:57:36.280Z,11.10
2018-09-17T05:00:05.892Z,11.00
2018-09-17T05:02:35.099Z,10.90
2018-09-17T05:05:04.297Z,11.00
2018-09-17T05:07:33.709Z,11.00
2018-09-17T05:10:02.947Z,11.00
2018-09-17T05:12:32.242Z,11.00
2018-09-17T05:15:01.548Z,11.00
2018-09-17T05:17:31.265Z,11.00
2018-09-17T05:20:00.638Z,11.00
2018-09-17T05:22:29.727Z,10.90
2018-09-17T05:24:59.726Z,10.90
2018-09-17T05:27:28.942Z,10.80
2018-09-17T05:29:58.277Z,10.80
2018-09-17T05:32:28.519Z,10.80
2018-09-17T05:34:57.635Z,10.80
2018-09-17T05:37:27.128Z,10.80
2018-09-17T05:39:56.405Z,10.90
2018-09-17T05:42:25.695Z,11.00
2018-09-17T05:44:55.031Z,11.10
2018-09-17T05:47:24.206Z,11.30
2018-09-17T05:49:53.383Z,11.40
2018-09-17T05:52:22.594Z,11.40
2018-09-17T05:54:51.797Z,11.40
2018-09-17T05:57:21.054Z,11.40
2018-09-17T05:59:50.223Z,11.40
2018-09-17T06:02:19.596Z,11.40
2018-09-17T06:04:48.652Z,11.40
2018-09-17T06:07:17.778Z,11.50
2018-09-17T06:09:47.867Z,11.60
2018-09-17T06:12:16.982Z,11.70
2018-09-17T06:14:46.216Z,11.70
2018-09-17T06:17:15.441Z,11.80
2018-09-17T06:19:44.532Z,12.00
2018-09-17T06:22:13.857Z,12.00
2018-09-17T06:24:43.052Z,12.10
2018-09-17T06:27:12.383Z,12.20
2018-09-17T06:29:41.750Z,12.30
2018-09-17T06:32:10.990Z,12.40
2018-09-17T06:34:40.283Z,12.50
2018-09-17T06:37:09.605Z,12.60
2018-09-17T06:39:38.764Z,12.70
2018-09-17T06:42:08.309Z,12.80
2018-09-17T06:44:37.472Z,12.90
2018-09-17T06:47:06.871Z,13.10
2018-09-17T06:49:36.060Z,13.20
2018-09-17T06:52:06.143Z,13.40
2018-09-17T06:54:35.540Z,13.50
2018-09-17T06:57:05.232Z,13.60
2018-09-17T06:59:34.509Z,13.70
2018-09-17T07:02:03.827Z,13.80
2018-09-17T07:04:33.025Z,13.90
2018-09-17T07:07:02.237Z,14.10
2018-09-17T07:09:31.461Z,14.30
2018-09-17T07:12:00.623Z,14.40
2018-09-17T07:14:29.781Z,14.60
2018-09-17T07:16:58.871Z,14.70
2018-09-17T07:19:28.191Z,14.90
2018-09-17T07:21:57.446Z,15.00
2018-09-17T07:24:26.603Z,15.10
2018-09-17T07:26:55.653Z,15.10
2018-09-17T07:29:24.778Z,15.20
2018-09-17T07:31:57.527Z,15.30
2018-09-17T07:34:26.701Z,15.40
2018-09-17T07:36:55.882Z,15.40
2018-09-17T07:39:25.067Z,15.60
2018-09-17T07:41:54.334Z,15.60
2018-09-17T07:44:23.561Z,15.70
2018-09-17T07:46:53.239Z,15.80
2018-09-17T07:49:22.495Z,15.90
2018-09-17T07:51:51.660Z,16.00
2018-09-17T07:54:21.389Z,16.10
2018-09-17T07:56:50.513Z,16.20
2018-09-17T07:59:19.861Z,16.40
2018-09-17T08:01:49.204Z,16.50
2018-09-17T08:04:18.425Z,16.70
2018-09-17T08:06:48.303Z,16.90
2018-09-17T08:09:18.251Z,17.00
2018-09-17T08:11:47.799Z,17.10
2018-09-17T08:14:17.161Z,17.30
2018-09-17T08:16:47.038Z,17.40
2018-09-17T08:19:16.218Z,17.50
2018-09-17T08:21:46.094Z,17.60
2018-09-17T08:24:16.089Z,17.60
2018-09-17T08:26:45.447Z,17.70
2018-09-17T08:29:14.706Z,17.80
2018-09-17T08:31:44.028Z,17.90
2018-09-17T08:34:13.260Z,18.00
2018-09-17T08:36:43.053Z,18.10
2018-09-17T08:39:13.318Z,18.20
2018-09-17T08:41:43.378Z,18.20
2018-09-17T08:44:12.747Z,18.40
2018-09-17T08:46:42.964Z,18.50
2018-09-17T08:49:12.350Z,18.60
2018-09-17T08:51:41.400Z,18.70
2018-09-17T08:54:10.591Z,18.80
2018-09-17T08:56:46.186Z,18.90
2018-09-17T08:59:20.756Z,19.00
2018-09-17T09:02:52.707Z,19.20
2018-09-17T09:05:27.119Z,19.30
2018-09-17T09:07:56.665Z,19.40
2018-09-17T09:10:30.942Z,19.50
2018-09-17T09:13:05.664Z,19.60
2018-09-17T09:15:41.807Z,19.60
2018-09-17T09:18:11.377Z,19.60
2018-09-17T09:20:40.621Z,19.70
2018-09-17T09:23:09.963Z,19.80
2018-09-17T09:25:39.109Z,19.80
2018-09-17T09:28:08.380Z,19.90
2018-09-17T09:30:37.519Z,19.90
2018-09-17T09:33:06.959Z,20.00
2018-09-17T09:35:36.119Z,20.10
2018-09-17T09:38:11.983Z,20.20
2018-09-17T09:40:41.019Z,20.30
2018-09-17T09:43:10.085Z,20.40
2018-09-17T09:45:39.276Z,20.50
2018-09-17T09:48:08.450Z,20.60
2018-09-17T09:50:38.264Z,20.70
2018-09-17T09:53:07.459Z,20.80
2018-09-17T09:55:36.732Z,21.00
2018-09-17T09:58:06.077Z,21.10
2018-09-17T10:00:40.741Z,21.10
2018-09-17T10:03:16.363Z,21.20
2018-09-17T10:05:46.077Z,21.30
2018-09-17T10:08:15.485Z,21.40
2018-09-17T10:10:49.955Z,21.50
2018-09-17T10:13:24.592Z,21.60
2018-09-17T10:15:56.679Z,21.60
2018-09-17T10:18:32.669Z,21.70
2018-09-17T10:21:01.939Z,21.90
2018-09-17T10:23:31.070Z,22.00
2018-09-17T10:26:00.185Z,22.00
2018-09-17T10:28:29.426Z,22.20
2018-09-17T10:30:58.791Z,22.20
2018-09-17T10:33:27.817Z,22.20
2018-09-17T10:35:57.836Z,22.30
2018-09-17T10:38:27.640Z,22.40
2018-09-17T10:40:56.737Z,22.40
2018-09-17T10:43:25.827Z,22.50
2018-09-17T10:45:54.918Z,22.60
2018-09-17T10:48:24.155Z,22.70
2018-09-17T10:50:54.263Z,22.70
2018-09-17T10:53:23.539Z,22.80
2018-09-17T10:55:52.984Z,22.80
2018-09-17T10:58:22.109Z,22.90
2018-09-17T11:00:51.471Z,22.90
2018-09-17T11:03:20.733Z,22.90
2018-09-17T11:05:49.994Z,22.90
2018-09-17T11:08:19.281Z,22.90
2018-09-17T11:11:04.306Z,22.90
2018-09-17T11:13:38.986Z,23.00
2018-09-17T11:16:08.485Z,23.00
2018-09-17T11:18:37.655Z,23.10
2018-09-17T11:21:06.762Z,23.10
2018-09-17T11:23:36.161Z,23.20
2018-09-17T11:26:05.700Z,23.30
2018-09-17T11:28:34.822Z,23.40
2018-09-17T11:31:04.151Z,23.40
2018-09-17T11:33:33.272Z,23.50
2018-09-17T11:36:02.449Z,23.60
2018-09-17T11:38:31.537Z,23.70
2018-09-17T11:41:00.848Z,23.70
2018-09-17T11:43:30.061Z,23.80
2018-09-17T11:45:59.337Z,23.80
2018-09-17T11:48:28.461Z,23.80
2018-09-17T11:50:58.278Z,23.90
2018-09-17T11:53:27.442Z,24.10
2018-09-17T11:55:56.537Z,24.10
2018-09-17T11:58:25.630Z,24.10
2018-09-17T12:01:00.092Z,24.20
2018-09-17T12:03:34.665Z,24.20
2018-09-17T12:06:05.206Z,24.30
2018-09-17T12:08:34.544Z,24.40
2018-09-17T12:11:03.626Z,24.40
2018-09-17T12:13:32.902Z,24.40
2018-09-17T12:16:02.717Z,24.50
2018-09-17T12:18:31.897Z,24.50
2018-09-17T12:21:01.100Z,24.60
2018-09-17T12:23:30.201Z,24.70
2018-09-17T12:25:59.425Z,24.70
2018-09-17T12:28:28.715Z,24.70
2018-09-17T12:30:58.044Z,24.80
2018-09-17T12:33:27.549Z,24.90
2018-09-17T12:35:56.715Z,24.90
2018-09-17T12:38:25.911Z,25.00
2018-09-17T12:40:55.066Z,25.20
2018-09-17T12:43:24.406Z,25.20
2018-09-17T12:45:53.544Z,25.30
2018-09-17T12:48:22.775Z,25.40
2018-09-17T12:50:52.001Z,25.40
2018-09-17T12:53:21.267Z,25.40
2018-09-17T12:55:50.762Z,25.40
2018-09-17T12:58:20.122Z,25.40
2018-09-17T13:00:51.086Z,25.40
2018-09-17T13:03:20.281Z,25.40
2018-09-17T13:05:49.358Z,25.60
2018-09-17T13:08:18.597Z,25.60
2018-09-17T13:10:47.746Z,25.50
2018-09-17T13:13:17.012Z,25.50
2018-09-17T13:15:51.437Z,25.50
2018-09-17T13:18:21.330Z,25.50
2018-09-17T13:20:50.548Z,25.60
2018-09-17T13:23:19.692Z,25.60
2018-09-17T13:25:49.597Z,25.60
2018-09-17T13:28:18.888Z,25.60
2018-09-17T13:30:48.385Z,25.70
2018-09-17T13:33:17.804Z,25.70
2018-09-17T13:35:46.907Z,25.80
2018-09-17T13:38:16.092Z,25.80
2018-09-17T13:40:46.077Z,25.80
2018-09-17T13:43:15.320Z,25.90
2018-09-17T13:45:44.408Z,25.90
2018-09-17T13:48:13.962Z,26.00
2018-09-17T13:50:43.215Z,26.10
2018-09-17T13:53:12.629Z,26.10
2018-09-17T13:55:41.832Z,26.20
2018-09-17T13:58:10.940Z,26.30
2018-09-17T14:00:40.118Z,26.30
2018-09-17T14:03:09.468Z,26.20
2018-09-17T14:05:38.631Z,26.20
2018-09-17T14:08:08.032Z,26.20
2018-09-17T14:10:37.400Z,26.20
2018-09-17T14:13:06.810Z,26.20
2018-09-17T14:15:36.016Z,26.30
2018-09-17T14:18:05.364Z,26.30
2018-09-17T14:20:34.439Z,26.30
2018-09-17T14:23:03.809Z,26.30
2018-09-17T14:25:33.044Z,26.30
2018-09-17T14:28:02.224Z,26.30
2018-09-17T14:30:31.369Z,26.30
2018-09-17T14:33:06.152Z,26.40
2018-09-17T14:35:35.215Z,26.50
2018-09-17T14:38:04.287Z,26.50
2018-09-17T14:40:33.386Z,26.50
2018-09-17T14:43:02.671Z,26.50
2018-09-17T14:45:31.780Z,26.60
2018-09-17T14:48:00.880Z,26.60
2018-09-17T14:50:30.030Z,26.70
2018-09-17T14:52:59.517Z,26.70
2018-09-17T14:55:29.224Z,26.80
2018-09-17T14:57:59.364Z,26.80
2018-09-17T15:00:28.708Z,26.90
2018-09-17T15:02:59.352Z,26.90
2018-09-17T15:05:28.694Z,26.90
2018-09-17T15:07:57.977Z,26.90
2018-09-17T15:10:27.100Z,27.00
2018-09-17T15:12:56.390Z,27.00
2018-09-17T15:15:26.107Z,27.00
2018-09-17T15:17:55.181Z,27.00
2018-09-17T15:20:24.338Z,27.00
2018-09-17T15:22:54.387Z,27.00
2018-09-17T15:25:23.523Z,27.00
2018-09-17T15:27:52.807Z,27.00
2018-09-17T15:30:21.995Z,26.90
2018-09-17T15:32:51.165Z,26.90
2018-09-17T15:35:20.608Z,26.90
2018-09-17T15:37:49.966Z,27.20
2018-09-17T15:40:20.812Z,27.50
2018-09-17T15:42:49.954Z,28.30
2018-09-17T15:45:19.219Z,29.00
2018-09-17T15:47:48.702Z,29.70
2018-09-17T15:50:18.582Z,30.10
2018-09-17T15:52:47.788Z,30.10
2018-09-17T15:55:17.082Z,30.20
2018-09-17T15:57:46.523Z,30.10
2018-09-17T16:00:15.766Z,30.30
2018-09-17T16:02:45.102Z,30.10
2018-09-17T16:05:14.133Z,30.10
2018-09-17T16:07:43.404Z,30.10
2018-09-17T16:10:12.549Z,30.00
2018-09-17T16:12:41.662Z,30.10
2018-09-17T16:15:10.868Z,30.10
2018-09-17T16:17:40.155Z,30.00
2018-09-17T16:20:09.227Z,29.80
2018-09-17T16:22:38.550Z,30.00
2018-09-17T16:25:07.625Z,29.80
2018-09-17T16:27:36.938Z,29.70
2018-09-17T16:30:07.545Z,29.60
2018-09-17T16:32:36.830Z,29.70
2018-09-17T16:35:07.009Z,30.00
2018-09-17T16:37:36.395Z,29.90
2018-09-17T16:40:06.098Z,29.90
2018-09-17T16:42:35.173Z,29.60
2018-09-17T16:45:04.304Z,29.40
2018-09-17T16:47:33.785Z,29.20
2018-09-17T16:50:03.210Z,29.00
2018-09-17T16:52:32.579Z,28.90
2018-09-17T16:55:01.695Z,28.80
2018-09-17T16:57:30.770Z,28.40
2018-09-17T16:59:59.937Z,27.90
2018-09-17T17:02:29.009Z,27.50
2018-09-17T17:04:58.326Z,27.00
2018-09-17T17:07:27.640Z,26.50
2018-09-17T17:09:56.802Z,26.00
2018-09-17T17:12:25.893Z,25.50
2018-09-17T17:14:55.171Z,25.20
2018-09-17T17:17:24.273Z,24.90
2018-09-17T17:19:53.929Z,24.60
2018-09-17T17:22:23.263Z,24.40
2018-09-17T17:24:52.416Z,24.20
2018-09-17T17:27:21.562Z,23.90
2018-09-17T17:29:50.762Z,23.70
2018-09-17T17:32:19.937Z,23.40
2018-09-17T17:34:49.363Z,23.20
2018-09-17T17:37:18.467Z,23.00
2018-09-17T17:39:48.552Z,22.80
2018-09-17T17:42:17.462Z,22.60
2018-09-17T17:44:55.163Z,22.30
2018-09-17T17:47:24.505Z,22.20
2018-09-17T17:49:54.094Z,22.00
2018-09-17T17:52:23.316Z,21.80
2018-09-17T17:54:52.410Z,21.60
2018-09-17T17:57:21.700Z,21.40
2018-09-17T17:59:50.865Z,21.30
2018-09-17T18:02:19.966Z,21.10
2018-09-17T18:04:49.093Z,21.00
2018-09-17T18:07:18.489Z,20.80
2018-09-17T18:09:48.456Z,20.70
2018-09-17T18:12:17.731Z,20.50
2018-09-17T18:14:47.233Z,20.40
2018-09-17T18:17:19.366Z,20.20
2018-09-17T18:19:49.380Z,20.10
2018-09-17T18:22:18.553Z,20.00
2018-09-17T18:24:47.686Z,19.90
2018-09-17T18:27:17.524Z,19.90
2018-09-17T18:29:46.826Z,19.70
2018-09-17T18:32:15.945Z,19.70
2018-09-17T18:34:45.463Z,19.60
2018-09-17T18:37:14.755Z,19.40
2018-09-17T18:39:44.065Z,19.40
2018-09-17T18:42:13.719Z,19.20
2018-09-17T18:44:43.037Z,19.20
2018-09-17T18:47:12.201Z,19.10
2018-09-17T18:49:41.618Z,19.10
2018-09-17T18:52:10.826Z,19.00
2018-09-17T18:54:40.236Z,18.90
2018-09-17T18:57:09.584Z,18.80
2018-09-17T18:59:38.701Z,18.70
2018-09-17T19:02:07.944Z,18.60
2018-09-17T19:04:37.064Z,18.60
2018-09-17T19:07:06.385Z,18.50
2018-09-17T19:09:40.835Z,18.40
2018-09-17T19:12:10.118Z,18.30
2018-09-17T19:14:44.740Z,18.20
2018-09-17T19:17:19.073Z,18.20
2018-09-17T19:19:48.281Z,18.00
2018-09-17T19:22:23.010Z,17.90
2018-09-17T19:24:51.889Z,17.80
2018-09-17T19:27:21.003Z,17.80
2018-09-17T19:29:50.246Z,17.60
2018-09-17T19:32:19.574Z,17.60
2018-09-17T19:34:48.655Z,17.50
2018-09-17T19:37:23.073Z,17.40
2018-09-17T19:39:57.742Z,17.40
2018-09-17T19:42:27.174Z,17.30
2018-09-17T19:45:01.612Z,17.20
2018-09-17T19:47:30.951Z,17.20
2018-09-17T19:50:00.262Z,17.10
2018-09-17T19:52:29.619Z,17.10
2018-09-17T19:54:58.806Z,17.00
2018-09-17T19:57:33.319Z,16.90
2018-09-17T20:00:02.478Z,16.90
2018-09-17T20:02:31.748Z,16.80
2018-09-17T20:05:06.226Z,16.80
2018-09-17T20:07:35.285Z,16.80
2018-09-17T20:10:04.774Z,16.70
2018-09-17T20:12:34.084Z,16.60
2018-09-17T20:15:03.144Z,16.60
2018-09-17T20:17:32.517Z,16.50
2018-09-17T20:20:01.809Z,16.50
2018-09-17T20:22:30.965Z,16.50
2018-09-17T20:25:00.138Z,16.40
2018-09-17T20:27:29.305Z,16.30
2018-09-17T20:29:58.938Z,16.30
2018-09-17T20:32:28.114Z,16.20
2018-09-17T20:34:57.625Z,16.20
2018-09-17T20:37:26.808Z,16.10
2018-09-17T20:39:56.104Z,16.10
2018-09-17T20:42:25.327Z,16.10
2018-09-17T20:44:54.555Z,16.10
2018-09-17T20:47:23.809Z,16.10
2018-09-17T20:49:53.064Z,16.00
2018-09-17T20:52:22.126Z,16.00
2018-09-17T20:54:51.203Z,15.90
2018-09-17T20:57:20.305Z,15.90
2018-09-17T20:59:49.503Z,15.80
2018-09-17T21:02:18.769Z,15.80
2018-09-17T21:04:48.002Z,15.80
2018-09-17T21:07:17.882Z,15.70
2018-09-17T21:09:47.111Z,15.70
2018-09-17T21:12:16.398Z,15.60
2018-09-17T21:14:45.586Z,15.60
2018-09-17T21:17:14.884Z,15.60
2018-09-17T21:19:44.081Z,15.50
2018-09-17T21:22:13.317Z,15.50
2018-09-17T21:24:43.077Z,15.50
2018-09-17T21:27:12.209Z,15.40
2018-09-17T21:29:41.354Z,15.40
2018-09-17T21:32:10.578Z,15.30
2018-09-17T21:34:39.694Z,15.30
2018-09-17T21:37:08.959Z,15.20
2018-09-17T21:39:38.111Z,15.20
2018-09-17T21:42:07.312Z,15.20
2018-09-17T21:44:37.610Z,15.10
2018-09-17T21:47:06.796Z,15.10
2018-09-17T21:49:36.102Z,15.10
2018-09-17T21:52:05.235Z,15.00
2018-09-17T21:54:34.555Z,15.00
2018-09-17T21:57:03.623Z,15.00
2018-09-17T21:59:33.437Z,14.90
2018-09-17T22:02:02.466Z,14.90
2018-09-17T22:04:31.633Z,14.90
2018-09-17T22:07:00.918Z,14.90
2018-09-17T22:09:30.211Z,14.90
2018-09-17T22:11:59.391Z,14.90
2018-09-17T22:14:28.514Z,14.80
2018-09-17T22:16:57.802Z,14.80
2018-09-17T22:19:27.076Z,14.80
2018-09-17T22:21:56.266Z,14.70
2018-09-17T22:24:25.550Z,14.70
2018-09-17T22:26:54.773Z,14.70
2018-09-17T22:29:23.940Z,14.60
2018-09-17T22:31:53.147Z,14.60
2018-09-17T22:34:22.187Z,14.50
2018-09-17T22:36:51.544Z,14.50
2018-09-17T22:39:21.244Z,14.50
2018-09-17T22:41:50.375Z,14.50
2018-09-17T22:44:19.444Z,14.50
2018-09-17T22:46:48.493Z,14.40
2018-09-17T22:49:17.761Z,14.40
2018-09-17T22:51:46.795Z,14.40
2018-09-17T22:54:15.870Z,14.30
2018-09-17T22:56:45.056Z,14.30
2018-09-17T22:59:14.251Z,14.30
2018-09-17T23:01:43.445Z,14.30
2018-09-17T23:04:12.835Z,14.30
2018-09-17T23:06:41.890Z,14.30
2018-09-17T23:09:11.613Z,14.30
2018-09-17T23:11:40.752Z,14.30
2018-09-17T23:14:12.978Z,14.40
2018-09-17T23:16:42.231Z,14.50
2018-09-17T23:19:11.314Z,14.50
2018-09-17T23:21:40.348Z,14.60
2018-09-17T23:24:09.520Z,14.60
2018-09-17T23:26:38.716Z,14.70
2018-09-17T23:29:07.908Z,14.70
2018-09-17T23:31:37.038Z,14.70
2018-09-17T23:34:06.723Z,14.80
2018-09-17T23:36:36.041Z,14.70
2018-09-17T23:39:08.624Z,14.80
2018-09-17T23:41:38.328Z,14.90
2018-09-17T23:44:07.475Z,14.90
2018-09-17T23:46:37.334Z,15.00
2018-09-17T23:49:06.501Z,15.00
2018-09-17T23:51:36.027Z,15.10
2018-09-17T23:54:05.395Z,15.20
2018-09-17T23:56:34.502Z,15.20
2018-09-17T23:59:03.765Z,15.20
